Terminal Aerodrome Forecast
Issued by NWS Cleveland, OH

Home | Current Version | Previous Version | Text Only | Print | Product List | Glossary On
Versions: 1 2 3 4 5 6 7 8 9 10 11 12 13 14 15 16 17 18 19 20 21 22 23 24 25
000
FTUS41 KCLE 180200 AAA
TAFCLE
TAF AMD
KCLE 180253Z 1803/1906 17008KT P6SM SCT120 OVC200
     FM181700 26008KT P6SM VCSH SCT040 OVC100
     FM182100 33010KT P6SM SCT100 BKN200=

USA.gov is the U.S. government's official web portal to all federal, state and local government web resources and services.